createdAt,value
2018-09-27T00:00:39.364Z,102527.62
2018-09-27T00:03:08.015Z,102516.75
2018-09-27T00:05:36.478Z,102520.64
2018-09-27T00:08:04.874Z,102513.36
2018-09-27T00:10:33.215Z,102517.31
2018-09-27T00:13:01.589Z,102521.18
2018-09-27T00:15:29.915Z,102521.42
2018-09-27T00:17:58.200Z,102522.44
2018-09-27T00:20:26.574Z,102516.47
2018-09-27T00:22:54.976Z,102516.08
2018-09-27T00:25:23.338Z,102514.77
2018-09-27T00:27:51.660Z,102518.00
2018-09-27T00:30:19.988Z,102513.09
2018-09-27T00:32:48.351Z,102518.98
2018-09-27T00:35:16.699Z,102515.56
2018-09-27T00:37:45.033Z,102507.80
2018-09-27T00:40:13.388Z,102505.44
2018-09-27T00:42:42.047Z,102505.44
2018-09-27T00:45:10.416Z,102500.38
2018-09-27T00:47:38.917Z,102500.11
2018-09-27T00:50:07.735Z,102497.33
2018-09-27T00:52:36.139Z,102491.09
2018-09-27T00:55:04.547Z,102484.98
2018-09-27T00:57:32.939Z,102486.18
2018-09-27T01:00:01.274Z,102483.55
2018-09-27T01:02:29.671Z,102490.14
2018-09-27T01:04:58.039Z,102495.05
2018-09-27T01:07:26.419Z,102487.89
2018-09-27T01:09:54.739Z,102487.77
2018-09-27T01:12:23.136Z,102488.38
2018-09-27T01:14:51.483Z,102483.76
2018-09-27T01:17:19.841Z,102478.97
2018-09-27T01:19:48.192Z,102483.31
2018-09-27T01:22:16.584Z,102489.52
2018-09-27T01:24:44.977Z,102487.56
2018-09-27T01:27:13.368Z,102485.75
2018-09-27T01:29:41.742Z,102487.28
2018-09-27T01:32:10.064Z,102476.83
2018-09-27T01:34:38.445Z,102479.38
2018-09-27T01:37:06.876Z,102477.58
2018-09-27T01:39:35.252Z,102484.64
2018-09-27T01:42:03.633Z,102480.21
2018-09-27T01:44:32.688Z,102475.56
2018-09-27T01:47:01.727Z,102474.78
2018-09-27T01:49:30.062Z,102468.33
2018-09-27T01:51:58.492Z,102470.01
2018-09-27T01:54:26.854Z,102463.90
2018-09-27T01:56:55.306Z,102461.14
2018-09-27T01:59:23.674Z,102462.24
2018-09-27T02:01:52.033Z,102463.34
2018-09-27T02:04:20.393Z,102454.47
2018-09-27T02:06:48.748Z,102456.75
2018-09-27T02:09:17.084Z,102448.48
2018-09-27T02:11:45.442Z,102449.45
2018-09-27T02:14:13.823Z,102446.33
2018-09-27T02:16:42.284Z,102449.45
2018-09-27T02:19:10.687Z,102440.22
2018-09-27T02:21:39.079Z,102444.75
2018-09-27T02:24:07.716Z,102443.08
2018-09-27T02:26:36.090Z,102436.58
2018-09-27T02:29:04.456Z,102434.20
2018-09-27T02:31:32.832Z,102419.97
2018-09-27T02:34:01.293Z,102417.56
2018-09-27T02:36:29.735Z,102418.31
2018-09-27T02:38:58.077Z,102420.85
2018-09-27T02:41:26.456Z,102419.41
2018-09-27T02:43:54.893Z,102419.28
2018-09-27T02:46:23.422Z,102420.02
2018-09-27T02:48:51.817Z,102412.73
2018-09-27T02:51:20.209Z,102416.59
2018-09-27T02:53:48.668Z,102409.61
2018-09-27T02:56:17.032Z,102413.57
2018-09-27T02:58:45.398Z,102408.69
2018-09-27T03:01:13.785Z,102405.66
2018-09-27T03:03:42.145Z,102403.98
2018-09-27T03:06:10.538Z,102402.63
2018-09-27T03:08:38.897Z,102399.98
2018-09-27T03:11:07.339Z,102393.47
2018-09-27T03:13:35.742Z,102391.36
2018-09-27T03:16:04.188Z,102390.96
2018-09-27T03:18:32.561Z,102390.20
2018-09-27T03:21:01.877Z,102388.84
2018-09-27T03:23:30.264Z,102393.96
2018-09-27T03:25:58.669Z,102388.64
2018-09-27T03:28:27.138Z,102387.66
2018-09-27T03:30:55.579Z,102386.95
2018-09-27T03:33:24.092Z,102381.63
2018-09-27T03:35:52.655Z,102377.53
2018-09-27T03:38:21.030Z,102375.47
2018-09-27T03:40:49.519Z,102376.42
2018-09-27T03:43:17.901Z,102377.20
2018-09-27T03:45:46.349Z,102387.86
2018-09-27T03:48:14.790Z,102380.44
2018-09-27T03:50:43.166Z,102380.44
2018-09-27T03:53:11.494Z,102381.34
2018-09-27T03:55:39.978Z,102375.35
2018-09-27T03:58:08.418Z,102380.08
2018-09-27T04:00:36.819Z,102374.31
2018-09-27T04:03:05.167Z,102369.82
2018-09-27T04:05:33.561Z,102365.72
2018-09-27T04:08:01.898Z,102360.30
2018-09-27T04:10:30.317Z,102363.98
2018-09-27T04:12:58.674Z,102361.00
2018-09-27T04:15:27.039Z,102362.67
2018-09-27T04:17:55.452Z,102357.05
2018-09-27T04:20:24.091Z,102361.20
2018-09-27T04:22:52.443Z,102359.73
2018-09-27T04:25:20.804Z,102361.70
2018-09-27T04:27:49.232Z,102357.31
2018-09-27T04:30:17.561Z,102352.13
2018-09-27T04:32:45.972Z,102360.62
2018-09-27T04:35:14.333Z,102364.98
2018-09-27T04:37:42.725Z,102361.04
2018-09-27T04:40:13.916Z,102365.70
2018-09-27T04:42:43.392Z,102354.34
2018-09-27T04:45:18.214Z,102360.44
2018-09-27T04:47:46.574Z,102356.61
2018-09-27T04:50:15.108Z,102360.49
2018-09-27T04:52:43.586Z,102349.25
2018-09-27T04:55:11.986Z,102348.22
2018-09-27T04:57:40.332Z,102347.23
2018-09-27T05:00:08.838Z,102351.86
2018-09-27T05:02:37.160Z,102357.69
2018-09-27T05:05:05.526Z,102356.97
2018-09-27T05:07:33.880Z,102356.09
2018-09-27T05:10:02.278Z,102357.05
2018-09-27T05:12:30.680Z,102347.20
2018-09-27T05:14:59.019Z,102351.16
2018-09-27T05:17:27.422Z,102344.30
2018-09-27T05:19:55.772Z,102348.92
2018-09-27T05:22:53.508Z,102352.98
2018-09-27T05:25:21.840Z,102354.38
2018-09-27T05:27:50.283Z,102351.08
2018-09-27T05:30:18.804Z,102355.22
2018-09-27T05:32:47.556Z,102352.11
2018-09-27T05:35:15.932Z,102347.80
2018-09-27T05:37:44.246Z,102357.66
2018-09-27T05:40:12.615Z,102363.87
2018-09-27T05:42:40.951Z,102359.36
2018-09-27T05:45:09.316Z,102350.80
2018-09-27T05:47:37.677Z,102355.37
2018-09-27T05:50:06.917Z,102351.91
2018-09-27T05:52:35.233Z,102357.25
2018-09-27T05:55:03.661Z,102351.43
2018-09-27T05:57:32.050Z,102350.39
2018-09-27T06:00:01.680Z,102358.80
2018-09-27T06:02:30.081Z,102348.82
2018-09-27T06:04:58.428Z,102350.77
2018-09-27T06:07:26.825Z,102353.76
2018-09-27T06:09:55.139Z,102353.76
2018-09-27T06:12:23.484Z,102353.92
2018-09-27T06:14:51.779Z,102354.07
2018-09-27T06:17:20.170Z,102350.55
2018-09-27T06:19:48.512Z,102349.42
2018-09-27T06:22:16.789Z,102355.78
2018-09-27T06:24:45.106Z,102351.98
2018-09-27T06:27:13.515Z,102359.92
2018-09-27T06:29:41.867Z,102351.75
2018-09-27T06:32:10.451Z,102354.23
2018-09-27T06:34:38.791Z,102350.78
2018-09-27T06:37:07.134Z,102347.69
2018-09-27T06:39:35.502Z,102349.06
2018-09-27T06:42:03.860Z,102358.81
2018-09-27T06:44:32.236Z,102365.41
2018-09-27T06:47:00.590Z,102349.80
2018-09-27T06:49:28.927Z,102349.98
2018-09-27T06:52:54.925Z,102352.22
2018-09-27T06:55:23.416Z,102351.17
2018-09-27T06:57:51.611Z,102350.98
2018-09-27T07:00:19.981Z,102347.88
2018-09-27T07:02:48.318Z,102341.92
2018-09-27T07:05:16.687Z,102338.27
2018-09-27T07:07:45.044Z,102343.89
2018-09-27T07:10:13.421Z,102348.23
2018-09-27T07:12:41.785Z,102342.88
2018-09-27T07:15:10.099Z,102339.66
2018-09-27T07:17:40.246Z,102340.28
2018-09-27T07:20:08.625Z,102338.95
2018-09-27T07:22:37.008Z,102335.50
2018-09-27T07:25:05.479Z,102343.41
2018-09-27T07:27:33.764Z,102342.94
2018-09-27T07:30:02.124Z,102344.66
2018-09-27T07:32:30.557Z,102343.47
2018-09-27T07:34:58.888Z,102341.55
2018-09-27T07:37:27.245Z,102337.46
2018-09-27T07:39:55.606Z,102338.79
2018-09-27T07:42:23.945Z,102338.91
2018-09-27T07:44:52.362Z,102335.41
2018-09-27T07:47:20.769Z,102339.72
2018-09-27T07:49:49.152Z,102328.80
2018-09-27T07:52:17.476Z,102319.52
2018-09-27T07:54:45.880Z,102327.80
2018-09-27T07:57:14.575Z,102324.17
2018-09-27T07:59:42.899Z,102322.60
2018-09-27T08:02:11.280Z,102316.53
2018-09-27T08:04:39.618Z,102319.76
2018-09-27T08:07:07.970Z,102318.66
2018-09-27T08:09:36.326Z,102321.84
2018-09-27T08:12:04.804Z,102317.38
2018-09-27T08:14:33.306Z,102322.53
2018-09-27T08:17:01.716Z,102317.57
2018-09-27T08:19:30.013Z,102314.27
2018-09-27T08:21:58.410Z,102316.98
2018-09-27T08:24:26.863Z,102308.41
2018-09-27T08:26:55.215Z,102309.56
2018-09-27T08:29:23.599Z,102304.09
2018-09-27T08:31:51.998Z,102292.22
2018-09-27T08:34:20.378Z,102297.19
2018-09-27T08:36:48.723Z,102294.58
2018-09-27T08:39:17.038Z,102288.98
2018-09-27T08:41:45.419Z,102289.40
2018-09-27T08:44:13.736Z,102284.05
2018-09-27T08:46:42.800Z,102283.37
2018-09-27T08:49:11.149Z,102279.56
2018-09-27T08:51:39.612Z,102281.14
2018-09-27T08:54:07.983Z,102273.27
2018-09-27T08:56:36.328Z,102280.05
2018-09-27T08:59:04.660Z,102268.31
2018-09-27T09:01:33.022Z,102266.37
2018-09-27T09:04:01.392Z,102260.73
2018-09-27T09:06:29.767Z,102252.95
2018-09-27T09:08:58.075Z,102257.85
2018-09-27T09:11:26.540Z,102258.13
2018-09-27T09:13:55.159Z,102246.84
2018-09-27T09:16:23.467Z,102243.84
2018-09-27T09:18:51.836Z,102244.44
2018-09-27T09:21:20.309Z,102236.03
2018-09-27T09:23:48.753Z,102238.39
2018-09-27T09:26:17.092Z,102236.57
2018-09-27T09:28:45.454Z,102232.52
2018-09-27T09:31:14.191Z,102225.14
2018-09-27T09:33:43.307Z,102222.23
2018-09-27T09:36:11.625Z,102213.09
2018-09-27T09:38:39.979Z,102209.31
2018-09-27T09:41:08.293Z,102207.48
2018-09-27T09:43:36.706Z,102199.23
2018-09-27T09:46:05.056Z,102190.80
2018-09-27T09:48:33.436Z,102189.42
2018-09-27T09:51:01.884Z,102186.50
2018-09-27T09:53:30.285Z,102174.45
2018-09-27T09:55:58.714Z,102180.09
2018-09-27T09:58:27.084Z,102170.20
2018-09-27T10:00:55.451Z,102161.48
2018-09-27T10:03:23.834Z,102168.53
2018-09-27T10:05:52.212Z,102162.97
2018-09-27T10:08:20.601Z,102162.20
2018-09-27T10:10:48.987Z,102152.42
2018-09-27T10:13:17.324Z,102143.14
2018-09-27T10:15:45.638Z,102137.52
2018-09-27T10:18:14.124Z,102139.20
2018-09-27T10:20:42.489Z,102135.23
2018-09-27T10:23:11.089Z,102129.84
2018-09-27T10:25:39.664Z,102126.73
2018-09-27T10:28:08.633Z,102124.72
2018-09-27T10:30:36.950Z,102118.75
2018-09-27T10:33:05.325Z,102110.80
2018-09-27T10:35:33.689Z,102109.86
2018-09-27T10:38:02.062Z,102108.54
2018-09-27T10:40:30.379Z,102103.73
2018-09-27T10:42:58.733Z,102110.78
2018-09-27T10:45:27.104Z,102103.96
2018-09-27T10:47:55.457Z,102104.79
2018-09-27T10:50:23.811Z,102103.52
2018-09-27T10:52:52.463Z,102102.88
2018-09-27T10:55:20.838Z,102100.22
2018-09-27T10:57:49.163Z,102100.87
2018-09-27T11:00:19.199Z,102092.06
2018-09-27T11:02:47.898Z,102092.75
2018-09-27T11:05:16.275Z,102079.61
2018-09-27T11:07:44.832Z,102081.79
2018-09-27T11:10:13.217Z,102074.16
2018-09-27T11:12:41.865Z,102076.17
2018-09-27T11:15:10.215Z,102072.21
2018-09-27T11:17:38.827Z,102067.41
2018-09-27T11:20:07.274Z,102071.59
2018-09-27T11:22:35.637Z,102057.25
2018-09-27T11:25:04.059Z,102061.58
2018-09-27T11:27:32.419Z,102048.06
2018-09-27T11:30:05.976Z,102056.09
2018-09-27T11:32:38.505Z,102046.91
2018-09-27T11:35:07.469Z,102037.42
2018-09-27T11:37:35.815Z,102041.25
2018-09-27T11:40:05.043Z,102031.73
2018-09-27T11:42:33.504Z,102027.59
2018-09-27T11:45:01.846Z,102019.59
2018-09-27T11:47:30.183Z,102014.91
2018-09-27T11:49:58.567Z,102008.42
2018-09-27T11:52:27.005Z,101999.58
2018-09-27T11:54:55.395Z,101989.58
2018-09-27T11:57:23.745Z,101994.25
2018-09-27T11:59:52.125Z,101985.55
2018-09-27T12:02:20.585Z,101980.22
2018-09-27T12:04:48.955Z,101969.87
2018-09-27T12:07:17.304Z,101964.85
2018-09-27T12:09:45.678Z,101960.28
2018-09-27T12:12:14.316Z,101953.61
2018-09-27T12:14:42.863Z,101952.25
2018-09-27T12:17:11.146Z,101946.08
2018-09-27T12:19:39.552Z,101944.39
2018-09-27T12:22:07.883Z,101943.86
2018-09-27T12:24:36.199Z,101939.16
2018-09-27T12:27:04.526Z,101932.33
2018-09-27T12:29:32.868Z,101921.67
2018-09-27T12:32:02.447Z,101927.36
2018-09-27T12:34:30.822Z,101914.87
2018-09-27T12:36:59.203Z,101913.70
2018-09-27T12:39:27.549Z,101899.49
2018-09-27T12:41:56.066Z,101899.11
2018-09-27T12:44:24.263Z,101887.73
2018-09-27T12:46:52.676Z,101886.84
2018-09-27T12:49:20.984Z,101880.00
2018-09-27T12:51:49.426Z,101881.34
2018-09-27T12:54:17.716Z,101875.97
2018-09-27T12:56:46.089Z,101869.09
2018-09-27T12:59:14.857Z,101872.71
2018-09-27T13:01:43.224Z,101862.64
2018-09-27T13:04:11.624Z,101857.62
2018-09-27T13:06:39.876Z,101854.59
2018-09-27T13:09:09.524Z,101847.91
2018-09-27T13:11:40.643Z,101840.72
2018-09-27T13:14:06.305Z,101839.66
2018-09-27T13:16:34.685Z,101847.19
2018-09-27T13:19:03.049Z,101845.00
2018-09-27T13:21:31.602Z,101836.00
2018-09-27T13:23:59.920Z,101834.61
2018-09-27T13:26:28.288Z,101831.44
2018-09-27T13:28:56.664Z,101829.78
2018-09-27T13:31:25.060Z,101819.60
2018-09-27T13:33:53.443Z,101824.84
2018-09-27T13:36:22.408Z,101820.32
2018-09-27T13:38:50.796Z,101810.97
2018-09-27T13:41:19.157Z,101806.47
2018-09-27T13:43:47.519Z,101800.39
2018-09-27T13:46:15.895Z,101796.90
2018-09-27T13:48:44.233Z,101790.22
2018-09-27T13:51:12.596Z,101785.23
2018-09-27T13:53:40.968Z,101779.89
2018-09-27T13:56:09.383Z,101777.98
2018-09-27T13:58:38.761Z,101781.19
2018-09-27T14:01:07.219Z,101775.95
2018-09-27T14:03:35.449Z,101771.63
2018-09-27T14:06:03.807Z,101764.75
2018-09-27T14:08:32.238Z,101764.39
2018-09-27T14:11:00.607Z,101757.19
2018-09-27T14:13:28.939Z,101760.72
2018-09-27T14:15:57.323Z,101761.03
2018-09-27T14:18:25.733Z,101757.34
2018-09-27T14:20:54.059Z,101755.17
2018-09-27T14:23:22.444Z,101755.48
2018-09-27T14:25:50.863Z,101755.13
2018-09-27T14:28:19.188Z,101747.84
2018-09-27T14:30:48.080Z,101744.17
2018-09-27T14:33:16.445Z,101742.92
2018-09-27T14:35:44.882Z,101740.64
2018-09-27T14:38:13.208Z,101734.87
2018-09-27T14:40:41.535Z,101725.28
2018-09-27T14:43:09.989Z,101726.93
2018-09-27T14:45:38.373Z,101727.13
2018-09-27T14:48:07.499Z,101721.19
2018-09-27T14:50:35.806Z,101722.84
2018-09-27T14:53:04.179Z,101715.02
2018-09-27T14:55:32.487Z,101713.03
2018-09-27T14:58:00.865Z,101707.73
2018-09-27T15:00:29.353Z,101702.48
2018-09-27T15:02:57.543Z,101696.82
2018-09-27T15:05:25.879Z,101702.80
2018-09-27T15:07:54.351Z,101695.80
2018-09-27T15:10:22.781Z,101692.58
2018-09-27T15:12:51.211Z,101689.69
2018-09-27T15:15:20.336Z,101689.17
2018-09-27T15:17:48.917Z,101683.38
2018-09-27T15:20:17.237Z,101676.06
2018-09-27T15:22:45.603Z,101680.55
2018-09-27T15:25:13.917Z,101687.44
2018-09-27T15:27:42.527Z,101677.26
2018-09-27T15:30:10.959Z,101678.94
2018-09-27T15:32:39.328Z,101672.31
2018-09-27T15:35:08.058Z,101674.07
2018-09-27T15:37:36.433Z,101659.59
2018-09-27T15:40:04.899Z,101656.98
2018-09-27T15:42:33.783Z,101657.86
2018-09-27T15:45:02.171Z,101660.55
2018-09-27T15:47:31.061Z,101660.09
2018-09-27T15:49:59.448Z,101658.96
2018-09-27T15:52:27.815Z,101657.17
2018-09-27T15:54:56.161Z,101655.00
2018-09-27T15:57:24.463Z,101658.36
2018-09-27T15:59:52.830Z,101650.54
2018-09-27T16:02:22.313Z,101646.39
2018-09-27T16:04:50.751Z,101648.28
2018-09-27T16:07:19.090Z,101649.64
2018-09-27T16:09:47.634Z,101645.69
2018-09-27T16:12:15.939Z,101649.03
2018-09-27T16:14:44.287Z,101643.28
2018-09-27T16:17:12.672Z,101637.16
2018-09-27T16:19:41.068Z,101637.84
2018-09-27T16:22:09.504Z,101635.99
2018-09-27T16:24:37.862Z,101637.33
2018-09-27T16:27:06.327Z,101626.55
2018-09-27T16:29:34.700Z,101623.46
2018-09-27T16:32:03.070Z,101621.84
2018-09-27T16:34:31.444Z,101627.27
2018-09-27T16:36:59.793Z,101620.33
2018-09-27T16:39:28.203Z,101626.53
2018-09-27T16:41:56.536Z,101620.58
2018-09-27T16:44:24.888Z,101616.97
2018-09-27T16:46:53.230Z,101618.46
2018-09-27T16:49:21.602Z,101616.34
2018-09-27T16:51:49.915Z,101615.52
2018-09-27T16:54:18.292Z,101611.56
2018-09-27T16:56:46.737Z,101615.45
2018-09-27T16:59:15.117Z,101611.67
2018-09-27T17:01:43.521Z,101612.25
2018-09-27T17:04:11.905Z,101609.02
2018-09-27T17:06:40.308Z,101605.55
2018-09-27T17:09:09.178Z,101610.27
2018-09-27T17:11:37.479Z,101606.83
2018-09-27T17:14:05.823Z,101602.03
2018-09-27T17:16:34.323Z,101604.05
2018-09-27T17:19:02.736Z,101608.25
2018-09-27T17:21:31.129Z,101601.28
2018-09-27T17:23:59.505Z,101602.64
2018-09-27T17:26:27.827Z,101605.17
2018-09-27T17:28:56.170Z,101602.55
2018-09-27T17:31:24.606Z,101606.02
2018-09-27T17:33:52.925Z,101609.03
2018-09-27T17:36:21.271Z,101602.38
2018-09-27T17:38:49.656Z,101608.05
2018-09-27T17:41:17.956Z,101607.38
2018-09-27T17:43:46.395Z,101606.71
2018-09-27T17:46:14.667Z,101608.55
2018-09-27T17:48:42.977Z,101600.55
2018-09-27T17:51:11.329Z,101597.22
2018-09-27T17:53:39.637Z,101600.89
2018-09-27T17:56:08.716Z,101604.70
2018-09-27T17:58:37.922Z,101603.70
2018-09-27T18:01:06.230Z,101602.02
2018-09-27T18:03:34.554Z,101596.70
2018-09-27T18:06:02.922Z,101605.12
2018-09-27T18:08:31.280Z,101601.14
2018-09-27T18:10:59.613Z,101606.37
2018-09-27T18:13:27.987Z,101600.22
2018-09-27T18:15:56.324Z,101601.67
2018-09-27T18:18:24.671Z,101599.64
2018-09-27T18:20:52.998Z,101598.63
2018-09-27T18:23:21.384Z,101600.09
2018-09-27T18:25:49.821Z,101592.11
2018-09-27T18:28:18.162Z,101595.39
2018-09-27T18:30:46.533Z,101598.53
2018-09-27T18:33:15.065Z,101595.67
2018-09-27T18:35:43.462Z,101594.48
2018-09-27T18:38:12.004Z,101594.62
2018-09-27T18:40:40.185Z,101593.23
2018-09-27T18:43:08.585Z,101586.88
2018-09-27T18:45:36.973Z,101590.95
2018-09-27T18:48:06.569Z,101591.73
2018-09-27T18:50:34.936Z,101584.16
2018-09-27T18:53:03.292Z,101589.74
2018-09-27T18:55:31.658Z,101592.36
2018-09-27T18:58:00.371Z,101590.16
2018-09-27T19:00:28.713Z,101590.43
2018-09-27T19:02:57.101Z,101585.90
2018-09-27T19:05:25.427Z,101597.09
2018-09-27T19:07:54.740Z,101609.81
2018-09-27T19:10:23.124Z,101603.16
2018-09-27T19:12:51.485Z,101600.97
2018-09-27T19:15:19.839Z,101602.06
2018-09-27T19:17:48.167Z,101596.99
2018-09-27T19:20:16.531Z,101591.12
2018-09-27T19:22:44.931Z,101597.02
2018-09-27T19:25:13.236Z,101598.09
2018-09-27T19:27:41.593Z,101597.72
2018-09-27T19:30:10.003Z,101589.54
2018-09-27T19:32:38.374Z,101589.63
2018-09-27T19:35:06.821Z,101587.09
2018-09-27T19:37:35.188Z,101587.89
2018-09-27T19:40:03.562Z,101587.34
2018-09-27T19:42:31.995Z,101587.53
2018-09-27T19:45:00.360Z,101581.36
2018-09-27T19:47:28.689Z,101575.04
2018-09-27T19:49:57.073Z,101579.79
2018-09-27T19:52:25.424Z,101576.61
2018-09-27T19:54:53.965Z,101580.03
2018-09-27T19:57:22.405Z,101579.28
2018-09-27T19:59:50.799Z,101585.02
2018-09-27T20:02:19.155Z,101581.33
2018-09-27T20:04:47.488Z,101575.99
2018-09-27T20:07:15.999Z,101575.91
2018-09-27T20:09:44.374Z,101583.30
2018-09-27T20:12:12.737Z,101575.19
2018-09-27T20:14:41.047Z,101575.97
2018-09-27T20:17:09.542Z,101574.92
2018-09-27T20:19:37.881Z,101577.69
2018-09-27T20:22:08.091Z,101581.27
2018-09-27T20:24:36.357Z,101582.05
2018-09-27T20:27:04.735Z,101577.87
2018-09-27T20:29:33.112Z,101582.11
2018-09-27T20:32:01.447Z,101576.98
2018-09-27T20:34:29.864Z,101580.86
2018-09-27T20:36:58.222Z,101575.67
2018-09-27T20:39:26.603Z,101574.75
2018-09-27T20:41:55.161Z,101581.17
2018-09-27T20:44:23.539Z,101584.09
2018-09-27T20:46:52.008Z,101581.73
2018-09-27T20:49:20.363Z,101580.47
2018-09-27T20:51:48.764Z,101580.62
2018-09-27T20:54:17.114Z,101578.26
2018-09-27T20:56:45.532Z,101573.09
2018-09-27T20:59:13.892Z,101570.61
2018-09-27T21:01:42.283Z,101570.89
2018-09-27T21:04:10.772Z,101572.14
2018-09-27T21:06:39.949Z,101570.88
2018-09-27T21:09:10.311Z,101569.84
2018-09-27T21:11:38.847Z,101570.45
2018-09-27T21:14:07.398Z,101571.64
2018-09-27T21:16:35.711Z,101569.98
2018-09-27T21:19:04.119Z,101571.09
2018-09-27T21:21:32.448Z,101577.75
2018-09-27T21:24:01.663Z,101576.20
2018-09-27T21:26:30.475Z,101573.87
2018-09-27T21:28:58.837Z,101565.70
2018-09-27T21:31:28.450Z,101576.87
2018-09-27T21:33:56.813Z,101564.58
2018-09-27T21:36:25.433Z,101572.06
2018-09-27T21:38:53.784Z,101571.01
2018-09-27T21:41:22.254Z,101567.32
2018-09-27T21:43:50.879Z,101566.77
2018-09-27T21:46:19.511Z,101563.56
2018-09-27T21:48:48.038Z,101560.70
2018-09-27T21:51:16.381Z,101563.27
2018-09-27T21:53:44.712Z,101564.85
2018-09-27T21:56:13.135Z,101563.80
2018-09-27T21:58:41.481Z,101553.55
2018-09-27T22:01:09.966Z,101553.66
2018-09-27T22:03:38.294Z,101551.78
2018-09-27T22:06:06.681Z,101550.95
2018-09-27T22:08:35.060Z,101557.59
2018-09-27T22:11:03.398Z,101555.59
2018-09-27T22:13:31.777Z,101557.17
2018-09-27T22:16:00.118Z,101551.53
2018-09-27T22:18:28.519Z,101552.66
2018-09-27T22:20:56.874Z,101552.09
2018-09-27T22:23:25.227Z,101554.02
2018-09-27T22:25:53.690Z,101558.94
2018-09-27T22:28:22.069Z,101562.19
2018-09-27T22:30:50.431Z,101554.53
2018-09-27T22:33:18.817Z,101549.19
2018-09-27T22:35:47.199Z,101549.30
2018-09-27T22:38:15.569Z,101556.12
2018-09-27T22:40:43.939Z,101556.83
2018-09-27T22:43:12.299Z,101553.22
2018-09-27T22:45:40.690Z,101551.07
2018-09-27T22:48:09.074Z,101549.52
2018-09-27T22:50:37.439Z,101538.08
2018-09-27T22:53:05.807Z,101535.81
2018-09-27T22:55:34.170Z,101533.59
2018-09-27T22:58:02.524Z,101531.44
2018-09-27T23:00:31.002Z,101522.14
2018-09-27T23:02:59.349Z,101521.91
2018-09-27T23:05:27.725Z,101533.31
2018-09-27T23:07:56.104Z,101532.28
2018-09-27T23:10:24.494Z,101534.20
2018-09-27T23:12:52.841Z,101537.44
2018-09-27T23:15:21.193Z,101543.34
2018-09-27T23:17:49.567Z,101550.88
2018-09-27T23:20:17.965Z,101554.00
2018-09-27T23:22:46.269Z,101551.02
2018-09-27T23:25:14.644Z,101558.78
2018-09-27T23:27:43.025Z,101558.92
2018-09-27T23:30:11.379Z,101553.16
2018-09-27T23:32:41.732Z,101554.97
2018-09-27T23:35:10.125Z,101552.94
2018-09-27T23:37:38.461Z,101554.16
2018-09-27T23:40:07.140Z,101551.10
2018-09-27T23:42:35.428Z,101557.11
2018-09-27T23:45:03.893Z,101554.02
2018-09-27T23:47:53.041Z,101556.07
2018-09-27T23:50:22.324Z,101548.91
2018-09-27T23:52:50.653Z,101556.23
2018-09-27T23:55:19.049Z,101560.44
2018-09-27T23:57:47.409Z,101556.74
